Time;durP1;ratioP1;P1;durP2;ratioP2;P2;SDS_P1;SDS_P2;PMS_P1;PMS_P2;Temp;Humidity;BMP_temperature;BMP_pressure;BME280_temperature;BME280_humidity;BME280_pressure;Samples;Min_cycle;Max_cycle;Signal;HPM_P1;HPM_P2
2022/12/14 00:01:21;;;;;;;47.45;27.15;;;-4.50;99.90;;;;;;5078065;28;20394;-77
2022/12/14 00:03:47;;;;;;;46.58;27.65;;;-4.50;99.90;;;;;;5075461;28;20125;-77
2022/12/14 00:06:18;;;;;;;47.05;27.20;;;-4.50;99.90;;;;;;5088170;28;20043;-77
2022/12/14 00:08:44;;;;;;;51.92;27.63;;;-4.50;99.90;;;;;;5087190;28;20067;-78
2022/12/14 00:11:10;;;;;;;48.72;26.88;;;-4.60;99.90;;;;;;5081971;28;21274;-77
2022/12/14 00:13:36;;;;;;;52.17;28.67;;;-4.60;99.90;;;;;;5080679;28;20066;-76
2022/12/14 00:16:30;;;;;;;49.88;28.55;;;-4.70;99.90;;;;;;5085726;28;20044;-76
2022/12/14 00:18:57;;;;;;;49.83;29.52;;;-4.70;99.90;;;;;;5083618;28;20413;-76
2022/12/14 00:21:24;;;;;;;54.00;28.58;;;-4.70;99.90;;;;;;5087745;28;20503;-76
2022/12/14 00:23:51;;;;;;;53.38;30.25;;;-4.70;99.90;;;;;;5083185;28;20371;-76
2022/12/14 00:26:20;;;;;;;53.42;29.90;;;-4.70;99.90;;;;;;5079443;28;20044;-77
2022/12/14 00:28:47;;;;;;;55.80;29.33;;;-4.80;99.90;;;;;;5066935;28;20505;-77
2022/12/14 00:31:13;;;;;;;51.47;27.88;;;-4.80;99.90;;;;;;5087163;28;20544;-77
2022/12/14 00:33:39;;;;;;;50.53;27.95;;;-4.80;99.90;;;;;;5056025;28;20044;-77
2022/12/14 00:36:06;;;;;;;49.72;27.25;;;-4.80;99.90;;;;;;5080131;28;20135;-77
2022/12/14 00:38:33;;;;;;;50.57;27.90;;;-4.80;99.90;;;;;;5064016;28;20048;-77
2022/12/14 00:40:58;;;;;;;48.28;27.67;;;-4.90;99.90;;;;;;5054858;28;20332;-76
2022/12/14 00:43:24;;;;;;;54.38;28.42;;;-4.90;99.90;;;;;;5076892;28;20434;-77
2022/12/14 00:45:51;;;;;;;49.58;27.63;;;-4.90;99.90;;;;;;5063344;28;20093;-77
2022/12/14 00:48:18;;;;;;;49.47;27.35;;;-4.90;99.90;;;;;;5060345;28;20052;-77
2022/12/14 00:50:45;;;;;;;49.05;25.98;;;-4.90;99.90;;;;;;5079983;28;20072;-77
2022/12/14 00:53:11;;;;;;;47.38;25.67;;;-5.00;99.90;;;;;;5077669;28;20115;-77
2022/12/14 00:55:42;;;;;;;49.08;26.10;;;-5.00;99.90;;;;;;5083432;28;20492;-77
2022/12/14 00:58:10;;;;;;;45.67;26.08;;;-5.00;99.90;;;;;;5077013;28;20040;-77
2022/12/14 01:00:35;;;;;;;49.60;26.02;;;-5.00;99.90;;;;;;5076831;28;20045;-77
2022/12/14 01:03:01;;;;;;;44.05;25.13;;;-5.00;99.90;;;;;;5078730;28;20066;-77
2022/12/14 01:05:27;;;;;;;48.83;25.02;;;-5.10;99.90;;;;;;5064535;28;20058;-77
2022/12/14 01:07:53;;;;;;;45.78;24.95;;;-5.10;99.90;;;;;;5081057;28;20115;-77
2022/12/14 01:10:18;;;;;;;49.08;25.40;;;-5.00;99.90;;;;;;5067970;28;20510;-77
2022/12/14 01:12:44;;;;;;;46.53;24.05;;;-5.20;99.90;;;;;;5077401;28;20036;-77
2022/12/14 01:15:10;;;;;;;44.05;24.20;;;-5.00;99.90;;;;;;5082095;28;20080;-77
2022/12/14 01:17:35;;;;;;;41.40;24.20;;;-5.10;99.90;;;;;;5082961;28;20036;-77
2022/12/14 01:20:01;;;;;;;43.08;23.90;;;-5.00;99.90;;;;;;5063628;28;20044;-77
2022/12/14 01:22:27;;;;;;;44.10;23.50;;;-5.00;99.90;;;;;;5089816;28;20063;-77
2022/12/14 01:24:53;;;;;;;44.22;24.55;;;-5.10;99.90;;;;;;5091157;28;20048;-77
2022/12/14 01:27:18;;;;;;;41.20;22.90;;;-5.10;99.90;;;;;;5084217;28;20382;-77
2022/12/14 01:29:44;;;;;;;43.22;24.42;;;-5.10;99.90;;;;;;5081199;28;20032;-77
2022/12/14 01:32:10;;;;;;;39.42;22.73;;;-5.00;99.90;;;;;;5088327;28;20064;-77
2022/12/14 01:34:35;;;;;;;40.50;22.80;;;-5.10;99.90;;;;;;5085638;28;20118;-77
2022/12/14 01:37:01;;;;;;;44.08;23.50;;;-5.20;99.90;;;;;;5067648;28;20546;-77
2022/12/14 01:39:26;;;;;;;39.95;22.75;;;-5.20;99.90;;;;;;5086036;28;20064;-77
2022/12/14 01:41:52;;;;;;;39.92;22.63;;;-5.30;99.90;;;;;;5069847;28;20076;-76
2022/12/14 01:44:17;;;;;;;39.97;22.83;;;-5.30;99.90;;;;;;5088481;28;20040;-77
2022/12/14 01:46:52;;;;;;;39.70;22.05;;;-5.30;99.90;;;;;;5075586;28;20048;-76
2022/12/14 01:49:30;;;;;;;37.80;21.50;;;-5.40;99.90;;;;;;5087085;28;20143;-76
2022/12/14 01:52:02;;;;;;;37.40;21.30;;;-5.40;99.90;;;;;;5090290;28;20051;-76
2022/12/14 01:54:31;;;;;;;39.42;21.38;;;-5.50;99.90;;;;;;5087717;28;20083;-75
2022/12/14 01:56:58;;;;;;;38.20;22.40;;;-5.50;99.90;;;;;;5094159;28;20056;-76
2022/12/14 01:59:32;;;;;;;36.67;20.65;;;-5.50;99.90;;;;;;5084549;28;20389;-76
2022/12/14 02:02:02;;;;;;;36.00;19.83;;;-5.60;99.90;;;;;;5084903;28;20094;-76
2022/12/14 02:04:29;;;;;;;37.67;20.45;;;-5.50;99.90;;;;;;5052194;28;20098;-76
2022/12/14 02:06:54;;;;;;;35.05;20.92;;;-5.50;99.90;;;;;;5090768;28;20230;-75
2022/12/14 02:09:25;;;;;;;38.85;20.63;;;-5.50;99.90;;;;;;5085540;28;20207;-75
2022/12/14 02:11:55;;;;;;;33.50;19.15;;;-5.50;99.90;;;;;;5067316;28;20057;-76
2022/12/14 02:14:22;;;;;;;34.47;20.23;;;-5.50;99.90;;;;;;5066048;28;20412;-75
2022/12/14 02:16:52;;;;;;;38.22;20.23;;;-5.50;99.90;;;;;;5064775;28;20033;-78
2022/12/14 02:19:17;;;;;;;37.25;20.15;;;-5.50;99.90;;;;;;5051083;28;20073;-78
2022/12/14 02:22:18;;;;;;;36.95;20.55;;;-5.60;99.90;;;;;;5053385;28;20045;-78
2022/12/14 02:25:33;;;;;;;39.55;20.77;;;-5.70;99.90;;;;;;5054171;28;20048;-78
2022/12/14 02:28:36;;;;;;;36.40;19.23;;;-5.70;99.90;;;;;;5055858;28;20494;-77
2022/12/14 02:31:23;;;;;;;36.00;20.55;;;-5.80;99.90;;;;;;5044342;28;20044;-77
2022/12/14 02:33:52;;;;;;;37.97;20.92;;;-5.80;99.90;;;;;;5062408;28;20076;-77
2022/12/14 02:36:44;;;;;;;33.25;20.15;;;-5.80;99.90;;;;;;5069093;28;20111;-78
2022/12/14 02:39:43;;;;;;;35.55;20.10;;;-5.90;99.90;;;;;;5055514;28;20053;-77
2022/12/14 02:42:14;;;;;;;38.17;20.75;;;-5.80;99.90;;;;;;5040258;28;20478;-78
2022/12/14 02:44:51;;;;;;;37.63;20.55;;;-5.90;99.90;;;;;;5063464;28;20040;-77
2022/12/14 02:47:44;;;;;;;35.75;19.52;;;-5.90;99.90;;;;;;5049083;28;20072;-77
2022/12/14 02:50:32;;;;;;;36.75;19.58;;;-6.00;99.90;;;;;;5050753;28;20510;-78
2022/12/14 02:53:29;;;;;;;35.67;19.77;;;-6.10;99.90;;;;;;5064986;28;20790;-78
2022/12/14 02:55:59;;;;;;;34.08;18.95;;;-6.10;99.90;;;;;;5065829;28;20128;-78
2022/12/14 02:58:34;;;;;;;33.65;19.77;;;-6.10;99.90;;;;;;5056889;28;20125;-78
2022/12/14 03:01:01;;;;;;;37.22;20.70;;;-6.10;99.90;;;;;;5057497;28;20086;-78
2022/12/14 03:03:27;;;;;;;35.72;20.70;;;-6.10;99.90;;;;;;5041597;28;21060;-77
2022/12/14 03:05:57;;;;;;;39.95;20.15;;;-6.10;99.90;;;;;;5061107;28;20045;-78
2022/12/14 03:08:25;;;;;;;37.20;19.92;;;-6.10;99.90;;;;;;5063865;28;20467;-78
2022/12/14 03:11:01;;;;;;;39.45;21.35;;;-6.20;99.90;;;;;;5060064;28;20412;-78
2022/12/14 03:13:38;;;;;;;39.88;21.08;;;-6.20;99.90;;;;;;5036400;28;20048;-79
2022/12/14 03:16:30;;;;;;;37.10;20.67;;;-6.20;99.90;;;;;;5047567;28;20174;-79
2022/12/14 03:19:19;;;;;;;38.58;20.75;;;-6.20;99.90;;;;;;5058414;28;20143;-80
2022/12/14 03:22:14;;;;;;;37.60;20.88;;;-6.20;99.90;;;;;;5051790;28;20097;-79
2022/12/14 03:24:44;;;;;;;38.88;18.65;;;-6.20;99.90;;;;;;5055876;28;20049;-78
2022/12/14 03:27:26;;;;;;;37.17;19.85;;;-6.10;99.90;;;;;;5069541;28;20051;-77
2022/12/14 03:30:15;;;;;;;38.83;20.33;;;-6.10;99.90;;;;;;5065573;28;20044;-77
2022/12/14 03:32:47;;;;;;;40.30;19.92;;;-6.10;99.90;;;;;;5046577;28;20064;-77
2022/12/14 03:35:26;;;;;;;36.30;20.38;;;-6.10;99.90;;;;;;5038215;28;20483;-78
2022/12/14 03:37:57;;;;;;;36.95;20.58;;;-6.20;99.90;;;;;;5073358;28;20094;-77
2022/12/14 03:40:32;;;;;;;37.22;19.75;;;-6.20;99.90;;;;;;5060299;28;20044;-78
2022/12/14 03:43:16;;;;;;;38.42;20.00;;;-6.20;99.90;;;;;;5049000;28;20096;-78
2022/12/14 03:46:21;;;;;;;44.45;22.38;;;-6.20;99.90;;;;;;5060143;28;20037;-78
2022/12/14 03:48:52;;;;;;;35.20;18.73;;;-6.20;99.90;;;;;;4979021;28;20042;-77
2022/12/14 03:51:27;;;;;;;38.33;20.50;;;-6.20;99.90;;;;;;4980831;28;20417;-79
2022/12/14 03:54:39;;;;;;;36.38;20.58;;;-6.10;99.90;;;;;;4978547;28;20061;-78
2022/12/14 03:57:37;;;;;;;39.33;19.67;;;-6.10;99.90;;;;;;4896179;29;20147;-78
2022/12/14 04:00:16;;;;;;;39.33;19.63;;;-6.10;99.90;;;;;;4889857;29;20093;-78
2022/12/14 04:02:47;;;;;;;37.22;18.95;;;-6.00;99.90;;;;;;4891991;29;20064;-77
2022/12/14 04:05:22;;;;;;;36.83;18.92;;;-6.00;99.90;;;;;;4892847;29;20067;-77
2022/12/14 04:08:24;;;;;;;36.70;20.27;;;-6.00;99.90;;;;;;4897275;29;20145;-77
2022/12/14 04:19:47;;;;;;;41.92;22.67;;;-6.10;99.90;;;;;;4875232;29;20049;-77
2022/12/14 04:22:20;;;;;;;41.30;20.58;;;-6.10;99.90;;;;;;4880076;29;20097;-77
2022/12/14 04:27:52;;;;;;;41.97;22.15;;;-6.20;99.90;;;;;;4896596;29;20064;-77
2022/12/14 04:30:17;;;;;;;44.83;22.35;;;-6.30;99.90;;;;;;4913085;28;20046;-76
2022/12/14 04:32:54;;;;;;;45.45;20.15;;;-6.20;99.90;;;;;;4958431;28;20713;-75
2022/12/14 04:35:25;;;;;;;47.25;22.23;;;-6.30;99.90;;;;;;4950133;28;20065;-77
2022/12/14 04:38:21;;;;;;;44.47;22.70;;;-6.30;99.90;;;;;;4963366;28;20112;-77
2022/12/14 04:40:54;;;;;;;45.83;22.27;;;-6.30;99.90;;;;;;4963902;28;20046;-77
2022/12/14 04:43:26;;;;;;;41.97;20.92;;;-6.30;99.90;;;;;;4968785;28;20051;-77
2022/12/14 04:45:57;;;;;;;42.65;22.33;;;-6.30;99.90;;;;;;4962837;28;20067;-77
2022/12/14 04:48:53;;;;;;;40.00;20.48;;;-6.30;99.90;;;;;;4987395;28;20064;-76
2022/12/14 04:51:32;;;;;;;44.72;22.17;;;-6.30;99.90;;;;;;5041952;28;20041;-76
2022/12/14 04:54:22;;;;;;;42.50;21.60;;;-6.30;99.90;;;;;;5040686;28;20583;-77
2022/12/14 04:57:07;;;;;;;45.38;21.88;;;-6.30;99.90;;;;;;5034899;28;20057;-76
2022/12/14 04:59:33;;;;;;;41.67;21.98;;;-6.40;99.90;;;;;;5044530;28;20175;-77
2022/12/14 05:02:08;;;;;;;44.72;21.30;;;-6.40;99.90;;;;;;5040596;28;20518;-77
2022/12/14 05:04:36;;;;;;;40.47;21.75;;;-6.40;99.90;;;;;;5024681;28;20048;-77
2022/12/14 05:07:18;;;;;;;49.40;24.05;;;-6.40;99.90;;;;;;5026386;28;20322;-77
2022/12/14 05:10:02;;;;;;;47.00;22.55;;;-6.50;99.90;;;;;;5041903;28;20099;-77
2022/12/14 05:12:49;;;;;;;43.97;22.73;;;-6.50;99.90;;;;;;5047423;28;20059;-77
2022/12/14 05:15:20;;;;;;;44.40;21.75;;;-6.60;99.90;;;;;;5063990;28;20044;-77
2022/12/14 05:17:46;;;;;;;46.05;21.83;;;-6.60;99.90;;;;;;5061706;28;20045;-76
2022/12/14 05:20:15;;;;;;;46.95;23.33;;;-6.50;99.90;;;;;;5043508;28;20812;-77
2022/12/14 05:22:41;;;;;;;48.28;21.52;;;-6.60;99.90;;;;;;5045036;28;20048;-77
2022/12/14 05:25:06;;;;;;;44.22;21.80;;;-6.50;99.90;;;;;;5062955;28;20134;-77
2022/12/14 05:27:32;;;;;;;46.13;22.23;;;-6.50;99.90;;;;;;5046422;28;20057;-77
2022/12/14 05:29:58;;;;;;;46.13;22.95;;;-6.50;99.90;;;;;;5061900;28;20090;-77
2022/12/14 05:32:23;;;;;;;48.63;22.38;;;-6.50;99.90;;;;;;5054622;28;20072;-76
2022/12/14 05:34:49;;;;;;;47.53;23.00;;;-6.50;99.90;;;;;;5064933;28;20040;-77
2022/12/14 05:37:14;;;;;;;43.10;21.83;;;-6.60;99.90;;;;;;5053344;28;20048;-77
2022/12/14 05:39:40;;;;;;;43.75;22.05;;;-6.50;99.90;;;;;;5049737;28;20112;-77
2022/12/14 05:42:06;;;;;;;43.38;21.23;;;-6.60;99.90;;;;;;5064685;28;20086;-77
2022/12/14 05:44:31;;;;;;;43.45;22.13;;;-6.70;99.90;;;;;;5061509;28;20033;-77
2022/12/14 05:46:57;;;;;;;44.22;21.42;;;-6.70;99.90;;;;;;5067775;28;20088;-77
2022/12/14 05:49:22;;;;;;;50.15;22.63;;;-6.60;99.90;;;;;;5071718;28;20052;-77
2022/12/14 05:51:48;;;;;;;42.58;21.85;;;-6.60;99.90;;;;;;5050087;28;20040;-77
2022/12/14 05:54:14;;;;;;;44.08;22.45;;;-6.60;99.90;;;;;;5074264;28;20059;-77
2022/12/14 05:56:40;;;;;;;46.70;22.45;;;-6.60;99.90;;;;;;5070312;28;20494;-77
2022/12/14 05:59:05;;;;;;;40.70;19.35;;;-6.70;99.90;;;;;;5067927;28;20037;-77
2022/12/14 06:01:31;;;;;;;39.10;19.33;;;-6.70;99.90;;;;;;5053304;28;20040;-78
2022/12/14 06:03:57;;;;;;;43.67;19.88;;;-6.60;99.90;;;;;;5043612;28;20456;-78
2022/12/14 06:06:23;;;;;;;46.33;21.85;;;-6.60;99.90;;;;;;5048329;28;20048;-79
2022/12/14 06:08:49;;;;;;;47.58;22.48;;;-6.70;99.90;;;;;;5046927;28;20463;-78
2022/12/14 06:11:20;;;;;;;45.97;22.80;;;-6.70;99.90;;;;;;5069087;28;20048;-78
2022/12/14 06:13:46;;;;;;;46.33;22.58;;;-6.70;99.90;;;;;;5085198;28;20032;-78
2022/12/14 06:16:18;;;;;;;48.72;22.70;;;-6.70;99.90;;;;;;5071636;28;20628;-78
2022/12/14 06:18:57;;;;;;;42.85;19.90;;;-6.70;99.90;;;;;;5085283;28;20048;-78
2022/12/14 06:21:26;;;;;;;40.10;18.75;;;-6.70;99.90;;;;;;5084691;28;20093;-78
2022/12/14 06:23:54;;;;;;;42.58;20.80;;;-6.70;99.90;;;;;;5080966;28;20044;-78
2022/12/14 06:26:20;;;;;;;43.55;21.25;;;-6.70;99.90;;;;;;5070186;28;20044;-78
2022/12/14 06:28:45;;;;;;;42.70;21.23;;;-6.70;99.90;;;;;;5093804;28;20047;-77
2022/12/14 06:31:15;;;;;;;42.50;20.33;;;-6.70;99.90;;;;;;5083323;28;20052;-78
2022/12/14 06:33:42;;;;;;;43.80;20.92;;;-6.80;99.90;;;;;;5076256;28;20097;-78
2022/12/14 06:36:38;;;;;;;45.10;22.00;;;-6.80;99.90;;;;;;5084627;28;20559;-78
2022/12/14 06:39:13;;;;;;;42.20;20.58;;;-6.80;99.90;;;;;;5073828;28;20080;-78
2022/12/14 06:41:40;;;;;;;44.85;21.10;;;-6.80;99.90;;;;;;5087745;28;20067;-77
2022/12/14 06:44:09;;;;;;;44.40;22.02;;;-6.80;99.90;;;;;;5087008;28;20055;-77
2022/12/14 06:46:35;;;;;;;42.83;21.75;;;-6.80;99.90;;;;;;5072794;28;20043;-78
2022/12/14 06:49:03;;;;;;;41.95;21.45;;;-6.80;99.90;;;;;;5090847;28;20057;-77
2022/12/14 06:51:28;;;;;;;40.60;21.15;;;-6.90;99.90;;;;;;5088896;28;20062;-77
2022/12/14 06:53:56;;;;;;;44.63;21.08;;;-6.90;99.90;;;;;;5081728;28;20548;-77
2022/12/14 06:56:23;;;;;;;45.07;22.57;;;-6.90;99.90;;;;;;5068459;28;20075;-77
2022/12/14 06:58:49;;;;;;;45.50;20.83;;;-7.00;99.90;;;;;;5065708;28;20297;-77
2022/12/14 07:01:17;;;;;;;48.17;22.92;;;-6.90;99.90;;;;;;5084026;28;20048;-77
2022/12/14 07:03:46;;;;;;;43.97;21.58;;;-6.90;99.90;;;;;;5084956;28;20040;-77
2022/12/14 07:06:12;;;;;;;43.50;21.77;;;-6.90;99.90;;;;;;5072011;28;20089;-77
2022/12/14 07:08:38;;;;;;;51.03;24.05;;;-6.90;99.90;;;;;;5084327;28;20035;-78
2022/12/14 07:11:10;;;;;;;50.28;23.85;;;-6.90;99.90;;;;;;5063927;28;20419;-78
2022/12/14 07:13:36;;;;;;;55.92;24.80;;;-6.90;99.90;;;;;;5061060;28;20505;-77
2022/12/14 07:16:03;;;;;;;58.30;25.80;;;-7.00;99.90;;;;;;5064362;28;20075;-78
2022/12/14 07:18:30;;;;;;;62.07;26.27;;;-6.90;99.90;;;;;;5045185;28;20136;-78
2022/12/14 07:21:10;;;;;;;62.58;27.40;;;-7.00;99.90;;;;;;5061218;28;20518;-77
2022/12/14 07:23:37;;;;;;;51.60;25.83;;;-7.00;99.90;;;;;;5064303;28;20079;-78
2022/12/14 07:26:24;;;;;;;57.25;26.50;;;-7.00;99.90;;;;;;5065057;28;20104;-77
2022/12/14 07:28:51;;;;;;;59.20;27.05;;;-7.00;99.90;;;;;;5058634;28;20041;-78
2022/12/14 07:31:19;;;;;;;64.47;27.83;;;-7.00;99.90;;;;;;5046887;28;20041;-77
2022/12/14 07:33:45;;;;;;;;;;;-7.00;99.90;;;;;;5069311;28;20048;-78
2022/12/14 07:36:16;;;;;;;53.28;25.20;;;-7.10;99.90;;;;;;5071532;28;19920;-78
2022/12/14 07:38:43;;;;;;;52.97;24.77;;;-7.10;99.90;;;;;;5071399;28;20376;-78
2022/12/14 07:41:15;;;;;;;57.53;26.98;;;-7.10;99.90;;;;;;5059951;28;20083;-78
2022/12/14 07:43:42;;;;;;;58.97;26.90;;;-7.10;99.90;;;;;;5063657;28;20132;-77
2022/12/14 07:46:11;;;;;;;59.50;29.00;;;-7.20;99.90;;;;;;5049100;28;20178;-77
2022/12/14 07:48:36;;;;;;;56.50;23.77;;;-7.20;99.90;;;;;;5062459;28;20119;-77
2022/12/14 07:51:10;;;;;;;53.72;25.67;;;-7.20;99.90;;;;;;5046630;28;20137;-78
2022/12/14 07:53:37;;;;;;;51.40;25.05;;;-7.20;99.90;;;;;;5069944;28;20068;-78
2022/12/14 07:56:09;;;;;;;50.53;25.70;;;-7.20;99.90;;;;;;5070349;28;20045;-78
2022/12/14 07:58:36;;;;;;;49.72;25.58;;;-7.20;99.90;;;;;;5071596;28;20040;-77
2022/12/14 08:01:19;;;;;;;52.17;24.25;;;-7.20;99.90;;;;;;5073074;28;20363;-77
2022/12/14 08:04:15;;;;;;;50.58;23.10;;;-7.20;99.90;;;;;;5064555;28;20036;-77
2022/12/14 08:06:41;;;;;;;50.78;23.58;;;-7.20;99.90;;;;;;5054307;28;20398;-74
2022/12/14 08:09:08;;;;;;;50.17;25.27;;;-7.20;99.90;;;;;;5038903;28;20447;-76
2022/12/14 08:11:34;;;;;;;49.97;24.20;;;-7.20;99.90;;;;;;5061916;28;20410;-75
2022/12/14 08:14:05;;;;;;;49.70;24.27;;;-7.30;99.90;;;;;;5066119;28;20049;-77
2022/12/14 08:16:32;;;;;;;49.85;24.50;;;-7.30;99.90;;;;;;5047547;28;20067;-76
2022/12/14 08:18:58;;;;;;;53.55;24.77;;;-7.30;99.90;;;;;;5071190;28;20045;-75
2022/12/14 08:21:26;;;;;;;46.22;22.40;;;-7.40;99.90;;;;;;5041719;28;20049;-76
2022/12/14 08:23:52;;;;;;;48.33;23.83;;;-7.40;99.90;;;;;;5066939;28;20036;-77
2022/12/14 08:26:19;;;;;;;54.38;24.73;;;-7.40;99.90;;;;;;5063611;28;20049;-74
2022/12/14 08:28:45;;;;;;;51.17;25.38;;;-7.30;99.90;;;;;;5063650;28;20029;-76
2022/12/14 08:31:13;;;;;;;51.70;23.85;;;-7.40;99.90;;;;;;5047549;28;20079;-76
2022/12/14 08:33:40;;;;;;;49.88;25.00;;;-7.30;99.90;;;;;;5065548;28;20101;-76
2022/12/14 08:36:11;;;;;;;58.07;26.00;;;-7.30;99.90;;;;;;5064471;28;20040;-76
2022/12/14 08:38:38;;;;;;;49.75;25.23;;;-7.30;99.90;;;;;;5065354;28;20930;-76
2022/12/14 08:41:05;;;;;;;49.20;24.85;;;-7.30;99.90;;;;;;5067486;28;20040;-77
2022/12/14 08:43:30;;;;;;;51.70;24.20;;;-7.30;99.90;;;;;;5067916;28;20045;-77
2022/12/14 08:45:56;;;;;;;51.47;24.65;;;-7.20;99.90;;;;;;5062068;28;20082;-76
2022/12/14 08:48:22;;;;;;;50.65;23.65;;;-7.20;99.90;;;;;;5061611;28;20055;-76
2022/12/14 08:50:47;;;;;;;49.20;24.17;;;-7.20;99.90;;;;;;5057207;28;20048;-76
2022/12/14 08:53:13;;;;;;;49.85;23.52;;;-7.10;99.90;;;;;;5033634;28;20048;-77
2022/12/14 08:55:39;;;;;;;47.42;23.85;;;-7.00;99.90;;;;;;5046701;28;20055;-77
2022/12/14 08:58:04;;;;;;;46.55;23.02;;;-7.00;99.90;;;;;;5054692;28;20037;-76
2022/12/14 09:00:30;;;;;;;45.17;22.85;;;-7.00;99.90;;;;;;5064135;28;20044;-76
2022/12/14 09:02:55;;;;;;;45.65;22.17;;;-6.90;99.90;;;;;;5068776;28;20037;-76
2022/12/14 09:05:21;;;;;;;43.38;21.20;;;-6.80;99.90;;;;;;5043238;28;20036;-76
2022/12/14 09:07:47;;;;;;;44.78;21.90;;;-6.80;99.90;;;;;;5061993;28;20040;-75
2022/12/14 09:10:12;;;;;;;44.05;22.50;;;-6.70;99.90;;;;;;5024758;28;20527;-76
2022/12/14 09:12:38;;;;;;;46.53;21.88;;;-6.70;99.90;;;;;;5058594;28;20060;-76
2022/12/14 09:15:05;;;;;;;41.38;20.42;;;-6.50;99.90;;;;;;5066834;28;20033;-77
2022/12/14 09:17:31;;;;;;;46.78;21.63;;;-6.50;99.90;;;;;;5065425;28;20044;-77
2022/12/14 09:19:57;;;;;;;46.47;22.60;;;-6.40;99.90;;;;;;5048119;28;20048;-77
2022/12/14 09:22:23;;;;;;;40.42;21.55;;;-6.30;99.90;;;;;;5063281;28;20394;-77
2022/12/14 09:24:49;;;;;;;44.08;22.50;;;-6.10;99.90;;;;;;5055628;28;20170;-76
2022/12/14 09:27:15;;;;;;;42.65;20.10;;;-6.10;99.90;;;;;;5048259;28;20044;-76
2022/12/14 09:29:41;;;;;;;40.95;21.00;;;-6.00;99.90;;;;;;5030668;28;20064;-76
2022/12/14 09:32:06;;;;;;;38.67;19.67;;;-5.90;99.90;;;;;;5059919;28;20132;-76
2022/12/14 09:34:32;;;;;;;39.53;20.27;;;-5.80;99.90;;;;;;5055243;28;20049;-76
2022/12/14 09:37:03;;;;;;;40.30;20.90;;;-5.70;99.90;;;;;;5064142;28;20040;-76
2022/12/14 09:39:30;;;;;;;36.35;19.02;;;-5.60;99.90;;;;;;5069327;28;20135;-76
2022/12/14 09:42:15;;;;;;;35.35;18.73;;;-5.50;99.90;;;;;;5042919;28;20033;-76
2022/12/14 09:44:44;;;;;;;39.30;19.08;;;-5.50;99.90;;;;;;5042748;28;20057;-76
2022/12/14 09:47:22;;;;;;;36.00;18.92;;;-5.40;99.90;;;;;;5069302;28;20044;-76
2022/12/14 09:49:56;;;;;;;;;;;-5.30;99.90;;;;;;5051871;28;20066;-77
2022/12/14 09:52:57;;;;;;;34.72;18.92;;;-5.20;99.90;;;;;;5063311;28;20007;-76
2022/12/14 09:55:35;;;;;;;36.72;18.63;;;-5.20;99.90;;;;;;5065955;28;20456;-76
2022/12/14 09:58:08;;;;;;;36.65;19.27;;;-5.10;99.90;;;;;;5052538;28;20044;-76
2022/12/14 10:00:42;;;;;;;37.42;18.42;;;-5.10;99.90;;;;;;5068041;28;20041;-76
2022/12/14 10:03:43;;;;;;;37.35;19.27;;;-4.90;99.90;;;;;;5068581;28;20547;-76
2022/12/14 10:06:29;;;;;;;34.17;18.55;;;-4.90;99.90;;;;;;5072903;28;20105;-76
2022/12/14 10:09:35;;;;;;;33.00;17.65;;;-4.80;99.90;;;;;;5063490;28;20094;-76
2022/12/14 10:12:40;;;;;;;36.50;18.73;;;-4.80;99.90;;;;;;5043151;28;20041;-76
2022/12/14 10:15:28;;;;;;;32.33;17.55;;;-4.70;99.90;;;;;;5071141;28;20037;-76
2022/12/14 10:17:59;;;;;;;32.63;17.53;;;-4.70;99.90;;;;;;5060492;28;20039;-76
2022/12/14 10:20:47;;;;;;;30.50;17.05;;;-4.60;99.90;;;;;;5071122;28;20386;-76
2022/12/14 10:23:16;;;;;;;37.97;17.42;;;-4.60;99.90;;;;;;5046318;28;20068;-76
2022/12/14 10:25:45;;;;;;;32.47;18.63;;;-4.40;99.90;;;;;;5057952;28;20536;-77
2022/12/14 10:28:21;;;;;;;33.65;18.92;;;-4.40;99.90;;;;;;5062707;28;20486;-77
2022/12/14 10:30:50;;;;;;;31.73;16.98;;;-4.30;99.90;;;;;;5067005;28;20052;-76
2022/12/14 10:33:29;;;;;;;32.92;17.17;;;-4.30;99.90;;;;;;5057541;28;20037;-76
2022/12/14 10:36:04;;;;;;;32.75;17.55;;;-4.20;99.90;;;;;;5055134;28;20454;-76
2022/12/14 10:38:38;;;;;;;32.33;18.05;;;-4.10;99.90;;;;;;5063887;28;20434;-76
2022/12/14 10:41:41;;;;;;;28.85;16.80;;;-4.00;99.90;;;;;;5061923;28;20060;-76
2022/12/14 10:44:12;;;;;;;31.42;16.25;;;-4.00;99.90;;;;;;5032205;28;20103;-76
2022/12/14 10:46:44;;;;;;;28.00;16.92;;;-3.90;99.90;;;;;;5066114;28;20128;-76
2022/12/14 10:49:35;;;;;;;32.95;17.00;;;-3.80;99.90;;;;;;5052582;28;20037;-76
2022/12/14 10:52:17;;;;;;;33.78;17.70;;;-3.70;99.90;;;;;;5066982;28;20390;-75
2022/12/14 10:55:02;;;;;;;31.42;17.23;;;-3.60;99.90;;;;;;5075557;28;20051;-76
2022/12/14 10:57:28;;;;;;;30.92;16.70;;;-3.50;99.90;;;;;;5032029;28;20131;-76
2022/12/14 10:59:54;;;;;;;38.58;18.70;;;-3.50;99.90;;;;;;5055451;28;20115;-76
2022/12/14 11:02:46;;;;;;;28.25;17.00;;;-3.40;99.90;;;;;;5074839;28;20075;-77
2022/12/14 11:05:18;;;;;;;29.88;15.88;;;-3.30;99.90;;;;;;5043598;28;20087;-76
2022/12/14 11:07:44;;;;;;;25.65;15.05;;;-3.30;99.90;;;;;;5070854;28;20502;-76
2022/12/14 11:10:21;;;;;;;26.13;15.07;;;-3.20;99.90;;;;;;5055132;28;20074;-76
2022/12/14 11:13:11;;;;;;;29.50;16.42;;;-3.10;99.90;;;;;;5060793;28;20032;-76
2022/12/14 11:15:48;;;;;;;27.13;16.00;;;-3.00;99.90;;;;;;5056390;28;20033;-76
2022/12/14 11:18:14;;;;;;;30.55;17.35;;;-3.00;99.90;;;;;;5062587;28;20115;-76
2022/12/14 11:20:48;;;;;;;28.13;16.50;;;-2.80;99.90;;;;;;5072067;28;20534;-76
2022/12/14 11:23:20;;;;;;;29.13;16.65;;;-2.80;99.90;;;;;;5059925;28;20039;-76
2022/12/14 11:25:53;;;;;;;28.38;16.58;;;-2.80;99.90;;;;;;5062010;28;20033;-76
2022/12/14 11:28:21;;;;;;;26.13;15.85;;;-2.70;99.90;;;;;;5050596;28;20044;-76
2022/12/14 11:30:56;;;;;;;;;;;-2.70;99.90;;;;;;5055210;28;20052;-76
2022/12/14 11:33:24;;;;;;;26.90;15.52;;;-2.60;99.90;;;;;;5064264;28;19979;-76
2022/12/14 11:35:52;;;;;;;27.10;15.77;;;-2.60;99.90;;;;;;5071459;28;20135;-76
2022/12/14 11:38:19;;;;;;;28.20;16.77;;;-2.50;99.90;;;;;;5065678;28;20040;-74
2022/12/14 11:40:45;;;;;;;26.88;16.08;;;-2.40;99.90;;;;;;5038694;28;20126;-77
2022/12/14 11:43:37;;;;;;;26.85;15.48;;;-2.30;99.90;;;;;;5062551;28;20438;-76
2022/12/14 11:46:04;;;;;;;25.92;15.10;;;-2.20;99.90;;;;;;5064180;28;20040;-76
2022/12/14 11:48:29;;;;;;;30.52;17.00;;;-2.10;99.90;;;;;;5066759;28;20128;-76
2022/12/14 11:51:10;;;;;;;25.58;15.23;;;-2.00;99.90;;;;;;5068272;28;20116;-76
2022/12/14 11:53:36;;;;;;;27.80;15.25;;;-2.00;99.90;;;;;;5072190;28;20486;-76
2022/12/14 11:56:05;;;;;;;23.52;13.75;;;-1.90;99.90;;;;;;5072243;28;20055;-76
2022/12/14 11:58:34;;;;;;;22.75;14.38;;;-1.80;99.90;;;;;;5065513;28;20040;-76
2022/12/14 12:01:24;;;;;;;24.00;14.80;;;-1.70;99.90;;;;;;5071320;28;20071;-76
2022/12/14 12:03:52;;;;;;;23.98;13.77;;;-1.70;99.90;;;;;;5063862;28;20059;-77
2022/12/14 12:06:21;;;;;;;25.70;14.00;;;-1.60;99.90;;;;;;5063819;28;21083;-77
2022/12/14 12:09:00;;;;;;;24.67;15.88;;;-1.50;99.90;;;;;;5064952;28;20037;-77
2022/12/14 12:11:29;;;;;;;24.48;14.88;;;-1.50;99.90;;;;;;5063078;28;20075;-78
2022/12/14 12:14:02;;;;;;;26.02;15.38;;;-1.40;99.90;;;;;;5049279;28;20040;-78
2022/12/14 12:16:29;;;;;;;25.23;15.15;;;-1.40;99.90;;;;;;5075914;28;20045;-78
2022/12/14 12:19:01;;;;;;;25.73;15.93;;;-1.40;99.90;;;;;;5065410;28;20864;-78
2022/12/14 12:21:32;;;;;;;26.63;15.32;;;-1.50;99.90;;;;;;5044427;28;20059;-77
2022/12/14 12:24:24;;;;;;;22.63;14.02;;;-1.40;99.90;;;;;;5065729;28;20037;-77
2022/12/14 12:26:57;;;;;;;22.13;13.93;;;-1.30;99.90;;;;;;5051330;28;20056;-77
2022/12/14 12:29:46;;;;;;;24.38;13.68;;;-1.30;99.90;;;;;;5064565;28;20059;-77
2022/12/14 12:32:25;;;;;;;23.50;13.50;;;-1.30;99.90;;;;;;5057005;28;20082;-77
2022/12/14 12:35:03;;;;;;;24.98;14.13;;;-1.30;99.90;;;;;;5045990;28;20040;-77
2022/12/14 12:37:39;;;;;;;23.17;13.75;;;-1.20;99.90;;;;;;5068042;28;20044;-78
2022/12/14 12:40:28;;;;;;;19.88;13.25;;;-1.20;99.90;;;;;;5063610;28;20127;-78
2022/12/14 12:43:17;;;;;;;22.85;14.35;;;-1.20;99.90;;;;;;5054228;28;20055;-78
2022/12/14 12:45:55;;;;;;;24.83;14.07;;;-1.20;99.90;;;;;;5063886;28;20090;-78
2022/12/14 12:48:27;;;;;;;19.38;12.90;;;-1.10;99.90;;;;;;5063276;28;20037;-75
2022/12/14 12:50:58;;;;;;;21.73;12.95;;;-1.10;99.90;;;;;;5064581;28;20494;-78
2022/12/14 12:53:43;;;;;;;19.17;12.57;;;-1.10;99.90;;;;;;5061844;28;20440;-77
2022/12/14 12:56:27;;;;;;;19.17;12.27;;;-1.00;99.90;;;;;;5064662;28;20487;-77
2022/12/14 12:58:53;;;;;;;19.40;12.10;;;-1.00;99.90;;;;;;5065173;28;20486;-77
2022/12/14 13:01:32;;;;;;;19.63;13.35;;;-1.00;99.90;;;;;;5071234;28;20052;-77
2022/12/14 13:04:02;;;;;;;22.63;13.75;;;-1.00;99.90;;;;;;5068113;28;20087;-77
2022/12/14 13:06:39;;;;;;;21.65;14.05;;;-1.00;99.90;;;;;;5035059;28;20063;-77
2022/12/14 13:09:32;;;;;;;19.63;13.07;;;-1.10;99.90;;;;;;5070439;28;20041;-76